createdAt,value
2023-03-03T00:01:56.007Z,100.00
2023-03-03T00:08:13.250Z,100.00
2023-03-03T00:10:45.269Z,100.00
2023-03-03T00:13:19.171Z,100.00
2023-03-03T00:15:47.521Z,100.00
2023-03-03T00:18:31.852Z,100.00
2023-03-03T00:21:01.314Z,100.00
2023-03-03T00:23:37.263Z,100.00
2023-03-03T00:26:17.102Z,100.00
2023-03-03T00:28:50.083Z,100.00
2023-03-03T00:31:24.182Z,100.00
2023-03-03T00:33:56.231Z,100.00
2023-03-03T00:36:35.222Z,100.00
2023-03-03T00:39:13.049Z,100.00
2023-03-03T00:41:41.450Z,100.00
2023-03-03T00:44:43.959Z,100.00
2023-03-03T00:47:38.216Z,100.00
2023-03-03T00:50:06.389Z,100.00
2023-03-03T00:52:40.555Z,100.00
2023-03-03T00:55:09.137Z,100.00
2023-03-03T00:57:41.332Z,100.00
2023-03-03T01:00:11.149Z,100.00
2023-03-03T01:02:39.919Z,100.00
2023-03-03T01:05:08.510Z,100.00
2023-03-03T01:07:36.896Z,100.00
2023-03-03T01:10:05.611Z,100.00
2023-03-03T01:12:34.572Z,100.00
2023-03-03T01:15:02.917Z,100.00
2023-03-03T01:17:34.664Z,100.00
2023-03-03T01:20:03.451Z,100.00
2023-03-03T01:22:31.875Z,100.00
2023-03-03T01:25:00.390Z,100.00
2023-03-03T01:27:28.799Z,100.00
2023-03-03T01:29:57.747Z,100.00
2023-03-03T01:32:26.225Z,100.00
2023-03-03T01:34:57.590Z,100.00
2023-03-03T01:37:27.367Z,100.00
2023-03-03T01:39:55.740Z,100.00
2023-03-03T01:42:25.779Z,100.00
2023-03-03T01:45:12.603Z,100.00
2023-03-03T01:47:45.843Z,100.00
2023-03-03T01:50:16.100Z,100.00
2023-03-03T01:52:45.955Z,100.00
2023-03-03T01:55:18.569Z,100.00
2023-03-03T01:57:50.968Z,100.00
2023-03-03T02:00:19.730Z,100.00
2023-03-03T02:02:47.929Z,100.00
2023-03-03T02:05:16.254Z,100.00
2023-03-03T02:07:44.786Z,100.00
2023-03-03T02:10:18.482Z,100.00
2023-03-03T02:12:53.634Z,100.00
2023-03-03T02:15:25.070Z,100.00
2023-03-03T02:17:58.063Z,100.00
2023-03-03T02:20:47.157Z,100.00
2023-03-03T02:23:28.260Z,100.00
2023-03-03T02:25:58.840Z,100.00
2023-03-03T02:28:31.051Z,100.00
2023-03-03T02:31:02.292Z,100.00
2023-03-03T02:33:30.576Z,100.00
2023-03-03T02:35:58.781Z,100.00
2023-03-03T02:38:30.211Z,100.00
2023-03-03T02:41:04.096Z,100.00
2023-03-03T02:43:37.282Z,100.00
2023-03-03T02:46:05.699Z,100.00
2023-03-03T02:48:34.162Z,100.00
2023-03-03T02:51:02.598Z,100.00
2023-03-03T02:53:31.000Z,100.00
2023-03-03T02:55:59.286Z,100.00
2023-03-03T02:58:27.584Z,100.00
2023-03-03T03:00:58.879Z,100.00
2023-03-03T03:03:27.986Z,100.00
2023-03-03T03:05:56.657Z,100.00
2023-03-03T03:08:26.512Z,100.00
2023-03-03T03:10:57.144Z,100.00
2023-03-03T03:13:27.993Z,100.00
2023-03-03T03:15:56.563Z,100.00
2023-03-03T03:18:25.134Z,100.00
2023-03-03T03:20:55.883Z,100.00
2023-03-03T03:23:24.555Z,100.00
2023-03-03T03:25:52.982Z,100.00
2023-03-03T03:28:25.464Z,100.00
2023-03-03T03:30:53.802Z,100.00
2023-03-03T03:33:22.778Z,100.00
2023-03-03T03:35:51.808Z,100.00
2023-03-03T03:38:20.203Z,100.00
2023-03-03T03:40:51.701Z,100.00
2023-03-03T03:43:22.577Z,100.00
2023-03-03T03:45:51.031Z,100.00
2023-03-03T03:48:20.183Z,100.00
2023-03-03T03:50:49.404Z,100.00
2023-03-03T03:53:19.399Z,100.00
2023-03-03T03:55:47.928Z,100.00
2023-03-03T03:58:22.576Z,100.00
2023-03-03T04:01:02.748Z,100.00
2023-03-03T04:03:33.102Z,100.00
2023-03-03T04:06:01.470Z,100.00
2023-03-03T04:08:34.762Z,100.00
2023-03-03T04:11:03.886Z,100.00
2023-03-03T04:13:35.366Z,100.00
2023-03-03T04:16:05.927Z,100.00
2023-03-03T04:18:35.403Z,100.00
2023-03-03T04:21:06.674Z,100.00
2023-03-03T04:23:35.151Z,100.00
2023-03-03T04:26:04.153Z,100.00
2023-03-03T04:28:33.302Z,100.00
2023-03-03T04:31:01.578Z,100.00
2023-03-03T04:33:32.832Z,100.00
2023-03-03T04:36:02.001Z,100.00
2023-03-03T04:38:30.299Z,100.00
2023-03-03T04:40:59.046Z,100.00
2023-03-03T04:43:30.384Z,100.00
2023-03-03T04:45:59.498Z,100.00
2023-03-03T04:48:27.946Z,100.00
2023-03-03T04:50:56.142Z,100.00
2023-03-03T04:53:25.310Z,100.00
2023-03-03T04:55:53.857Z,100.00
2023-03-03T04:58:22.561Z,100.00
2023-03-03T05:00:55.058Z,100.00
2023-03-03T05:03:23.939Z,100.00
2023-03-03T05:05:53.538Z,100.00
2023-03-03T05:08:22.241Z,100.00
2023-03-03T05:10:54.490Z,100.00
2023-03-03T05:13:27.598Z,100.00
2023-03-03T05:15:57.076Z,100.00
2023-03-03T05:18:25.729Z,100.00
2023-03-03T05:20:58.807Z,100.00
2023-03-03T05:23:27.048Z,100.00
2023-03-03T05:25:57.275Z,100.00
2023-03-03T05:28:27.087Z,100.00
2023-03-03T05:30:55.292Z,100.00
2023-03-03T05:33:25.021Z,100.00
2023-03-03T05:35:57.040Z,100.00
2023-03-03T05:38:25.315Z,100.00
2023-03-03T05:40:54.845Z,100.00
2023-03-03T05:43:23.075Z,100.00
2023-03-03T05:45:57.972Z,100.00
2023-03-03T05:48:26.087Z,100.00
2023-03-03T05:50:54.841Z,100.00
2023-03-03T05:53:23.040Z,100.00
2023-03-03T05:55:51.484Z,100.00
2023-03-03T05:58:20.632Z,100.00
2023-03-03T06:00:49.518Z,100.00
2023-03-03T06:03:18.449Z,100.00
2023-03-03T06:05:48.968Z,100.00
2023-03-03T06:08:17.319Z,100.00
2023-03-03T06:10:45.698Z,100.00
2023-03-03T06:13:14.235Z,100.00
2023-03-03T06:15:43.384Z,100.00
2023-03-03T06:18:11.554Z,100.00
2023-03-03T06:20:39.892Z,100.00
2023-03-03T06:23:08.171Z,100.00
2023-03-03T06:25:36.583Z,100.00
2023-03-03T06:28:04.782Z,100.00
2023-03-03T06:30:32.984Z,100.00
2023-03-03T06:33:01.390Z,100.00
2023-03-03T06:35:29.654Z,100.00
2023-03-03T06:37:57.839Z,100.00
2023-03-03T06:40:26.606Z,100.00
2023-03-03T06:42:55.556Z,100.00
2023-03-03T06:45:23.976Z,100.00
2023-03-03T06:47:52.120Z,100.00
2023-03-03T06:50:20.897Z,100.00
2023-03-03T06:52:49.324Z,100.00
2023-03-03T06:55:21.844Z,100.00
2023-03-03T06:57:50.381Z,100.00
2023-03-03T07:00:31.065Z,100.00
2023-03-03T07:03:01.010Z,100.00
2023-03-03T07:05:31.354Z,100.00
2023-03-03T07:08:01.126Z,100.00
2023-03-03T07:10:30.381Z,100.00
2023-03-03T07:13:04.350Z,100.00
2023-03-03T07:15:36.223Z,100.00
2023-03-03T07:18:05.496Z,100.00
2023-03-03T07:20:41.634Z,100.00
2023-03-03T07:23:34.945Z,100.00
2023-03-03T07:26:04.853Z,100.00
2023-03-03T07:28:33.899Z,100.00
2023-03-03T07:31:05.411Z,100.00
2023-03-03T07:33:36.078Z,100.00
2023-03-03T07:36:04.460Z,100.00
2023-03-03T07:38:41.236Z,100.00
2023-03-03T07:41:17.508Z,100.00
2023-03-03T07:44:04.643Z,100.00
2023-03-03T07:46:44.062Z,100.00
2023-03-03T07:49:20.989Z,100.00
2023-03-03T07:51:54.111Z,100.00
2023-03-03T07:54:28.547Z,100.00
2023-03-03T07:57:18.443Z,100.00
2023-03-03T07:59:48.994Z,99.94
2023-03-03T08:02:39.485Z,99.58
2023-03-03T08:05:29.380Z,99.23
2023-03-03T08:08:12.480Z,99.03
2023-03-03T08:10:50.749Z,98.63
2023-03-03T08:13:24.849Z,98.13
2023-03-03T08:15:58.493Z,97.59
2023-03-03T08:18:37.377Z,97.65
2023-03-03T08:21:14.621Z,97.14
2023-03-03T08:23:42.988Z,96.86
2023-03-03T08:26:14.224Z,96.39
2023-03-03T08:28:42.852Z,95.64
2023-03-03T08:31:20.253Z,95.45
2023-03-03T08:33:57.032Z,94.48
2023-03-03T08:36:29.068Z,93.92
2023-03-03T08:38:57.439Z,92.24
2023-03-03T08:41:25.683Z,91.05
2023-03-03T08:43:53.823Z,90.54
2023-03-03T08:46:22.085Z,90.22
2023-03-03T08:48:52.827Z,89.80
2023-03-03T08:51:20.984Z,89.95
2023-03-03T08:53:49.210Z,89.86
2023-03-03T08:56:17.437Z,89.94
2023-03-03T08:59:03.842Z,90.15
2023-03-03T09:01:32.686Z,89.90
2023-03-03T09:04:01.163Z,89.71
2023-03-03T09:06:30.444Z,89.83
2023-03-03T09:08:59.323Z,89.53
2023-03-03T09:11:28.833Z,89.23
2023-03-03T09:14:11.849Z,88.90
2023-03-03T09:16:48.013Z,88.29
2023-03-03T09:19:32.585Z,87.63
2023-03-03T09:22:16.544Z,87.22
2023-03-03T09:24:44.953Z,86.35
2023-03-03T09:27:36.246Z,86.35
2023-03-03T09:30:23.173Z,86.36
2023-03-03T09:32:51.383Z,86.15
2023-03-03T09:35:37.715Z,85.71
2023-03-03T09:38:22.631Z,85.47
2023-03-03T09:41:06.084Z,85.47
2023-03-03T09:43:51.354Z,84.71
2023-03-03T09:46:46.096Z,84.47
2023-03-03T09:49:21.918Z,83.93
2023-03-03T09:52:16.365Z,83.70
2023-03-03T09:55:00.088Z,84.02
2023-03-03T09:57:38.178Z,84.09
2023-03-03T10:00:32.743Z,82.58
2023-03-03T10:03:29.602Z,82.04
2023-03-03T10:06:34.374Z,81.57
2023-03-03T10:09:30.519Z,80.51
2023-03-03T10:12:08.142Z,80.05
2023-03-03T10:14:42.638Z,79.43
2023-03-03T10:17:30.030Z,79.80
2023-03-03T10:20:21.486Z,80.39
2023-03-03T10:22:50.329Z,80.37
2023-03-03T10:25:29.028Z,79.75
2023-03-03T10:28:31.403Z,79.30
2023-03-03T10:31:17.652Z,78.34
2023-03-03T10:34:32.643Z,77.03
2023-03-03T10:37:25.420Z,75.43
2023-03-03T10:39:57.465Z,75.26
2023-03-03T10:42:38.435Z,75.21
2023-03-03T10:45:31.417Z,75.11
2023-03-03T10:48:18.056Z,74.97
2023-03-03T10:51:23.607Z,74.56
2023-03-03T10:54:21.337Z,74.69
2023-03-03T10:57:05.894Z,74.82
2023-03-03T10:59:49.063Z,74.59
2023-03-03T11:02:22.603Z,74.43
2023-03-03T11:05:05.929Z,73.84
2023-03-03T11:08:09.214Z,73.76
2023-03-03T11:11:12.817Z,74.07
2023-03-03T11:14:10.136Z,73.71
2023-03-03T11:16:47.675Z,73.70
2023-03-03T11:19:28.254Z,73.90
2023-03-03T11:22:12.311Z,73.74
2023-03-03T11:24:44.037Z,73.47
2023-03-03T11:27:22.036Z,73.51
2023-03-03T11:30:30.174Z,72.80
2023-03-03T11:32:59.002Z,71.97
2023-03-03T11:35:53.618Z,70.66
2023-03-03T11:38:48.533Z,69.65
2023-03-03T11:41:32.387Z,68.56
2023-03-03T11:44:09.337Z,68.23
2023-03-03T11:47:02.436Z,67.93
2023-03-03T11:49:40.710Z,68.08
2023-03-03T11:52:41.336Z,67.65
2023-03-03T11:55:27.804Z,67.58
2023-03-03T11:58:17.672Z,67.31
2023-03-03T12:00:52.189Z,67.46
2023-03-03T12:03:39.802Z,67.54
2023-03-03T12:06:13.776Z,67.70
2023-03-03T12:09:09.275Z,68.10
2023-03-03T12:11:46.636Z,68.38
2023-03-03T12:14:40.204Z,68.58
2023-03-03T12:17:21.491Z,68.96
2023-03-03T12:19:52.877Z,68.93
2023-03-03T12:22:23.867Z,68.55
2023-03-03T12:25:30.672Z,68.05
2023-03-03T12:28:05.727Z,67.77
2023-03-03T12:30:37.572Z,67.78
2023-03-03T12:33:23.975Z,68.14
2023-03-03T12:36:18.489Z,68.49
2023-03-03T12:38:47.274Z,68.73
2023-03-03T12:41:24.283Z,69.02
2023-03-03T12:43:58.631Z,69.13
2023-03-03T12:46:29.968Z,69.19
2023-03-03T12:48:58.524Z,69.75
2023-03-03T12:52:01.296Z,69.85
2023-03-03T12:54:49.104Z,70.07
2023-03-03T12:57:54.334Z,70.47
2023-03-03T13:00:41.136Z,70.65
2023-03-03T13:03:09.595Z,70.62
2023-03-03T13:06:07.823Z,70.63
2023-03-03T13:08:37.831Z,70.92
2023-03-03T13:11:37.098Z,71.14
2023-03-03T13:14:31.197Z,71.14
2023-03-03T13:17:18.016Z,71.08
2023-03-03T13:19:55.089Z,71.35
2023-03-03T13:22:38.532Z,71.44
2023-03-03T13:25:14.160Z,71.68
2023-03-03T13:27:45.800Z,71.94
2023-03-03T13:30:21.999Z,72.09
2023-03-03T13:33:00.930Z,72.16
2023-03-03T13:35:34.076Z,72.42
2023-03-03T13:38:05.242Z,72.67
2023-03-03T13:40:49.300Z,72.58
2023-03-03T13:43:20.118Z,72.46
2023-03-03T13:45:55.057Z,72.03
2023-03-03T13:48:37.900Z,71.92
2023-03-03T13:51:33.019Z,72.23
2023-03-03T13:54:15.053Z,72.30
2023-03-03T13:57:12.892Z,72.28
2023-03-03T14:00:26.324Z,72.39
2023-03-03T14:03:00.177Z,72.50
2023-03-03T14:05:28.738Z,72.65
2023-03-03T14:07:59.387Z,72.49
2023-03-03T14:10:32.009Z,72.92
2023-03-03T14:13:08.415Z,73.43
2023-03-03T14:15:56.936Z,73.93
2023-03-03T14:18:34.668Z,75.08
2023-03-03T14:21:31.122Z,75.98
2023-03-03T14:24:18.702Z,76.82
2023-03-03T14:26:51.781Z,77.53
2023-03-03T14:29:28.823Z,78.35
2023-03-03T14:31:58.135Z,78.96
2023-03-03T14:34:28.144Z,79.78
2023-03-03T14:37:09.573Z,80.15
2023-03-03T14:39:39.586Z,80.58
2023-03-03T14:42:14.391Z,81.13
2023-03-03T14:44:46.454Z,81.48
2023-03-03T14:47:22.136Z,81.72
2023-03-03T14:49:51.918Z,82.05
2023-03-03T14:52:23.827Z,82.01
2023-03-03T14:55:00.545Z,82.21
2023-03-03T14:57:41.830Z,82.38
2023-03-03T15:00:13.498Z,82.46
2023-03-03T15:02:43.134Z,82.56
2023-03-03T15:05:30.533Z,82.88
2023-03-03T15:08:05.519Z,83.19
2023-03-03T15:10:35.887Z,83.46
2023-03-03T15:13:31.171Z,83.61
2023-03-03T15:15:59.966Z,83.74
2023-03-03T15:18:36.156Z,83.67
2023-03-03T15:21:21.393Z,83.70
2023-03-03T15:23:54.757Z,84.00
2023-03-03T15:26:53.287Z,83.98
2023-03-03T15:29:37.946Z,84.28
2023-03-03T15:32:36.692Z,84.30
2023-03-03T15:35:24.304Z,84.47
2023-03-03T15:37:55.471Z,84.63
2023-03-03T15:40:26.418Z,84.59
2023-03-03T15:43:10.667Z,84.66
2023-03-03T15:45:48.804Z,84.72
2023-03-03T15:49:05.658Z,84.78
2023-03-03T15:52:21.459Z,84.76
2023-03-03T15:54:53.284Z,84.87
2023-03-03T15:57:35.460Z,84.94
2023-03-03T16:00:23.340Z,85.01
2023-03-03T16:02:58.426Z,84.94
2023-03-03T16:05:31.897Z,85.02
2023-03-03T16:08:22.117Z,85.28
2023-03-03T16:11:03.668Z,85.23
2023-03-03T16:13:51.217Z,85.06
2023-03-03T16:16:48.212Z,84.69
2023-03-03T16:19:39.777Z,84.62
2023-03-03T16:22:42.340Z,84.56
2023-03-03T16:25:44.783Z,84.35
2023-03-03T16:28:33.302Z,84.32
2023-03-03T16:31:46.098Z,84.12
2023-03-03T16:34:21.444Z,84.11
2023-03-03T16:37:04.822Z,83.77
2023-03-03T16:39:56.967Z,83.54
2023-03-03T16:42:26.239Z,83.28
2023-03-03T16:45:31.132Z,83.17
2023-03-03T16:48:23.154Z,83.06
2023-03-03T16:51:10.541Z,83.04
2023-03-03T16:54:01.830Z,83.12
2023-03-03T16:56:38.230Z,83.13
2023-03-03T16:59:18.010Z,83.09
2023-03-03T17:02:28.546Z,83.17
2023-03-03T17:05:21.040Z,83.13
2023-03-03T17:07:56.784Z,83.17
2023-03-03T17:10:27.725Z,83.14
2023-03-03T17:13:23.238Z,83.21
2023-03-03T17:15:56.423Z,82.97
2023-03-03T17:18:39.004Z,83.02
2023-03-03T17:21:54.230Z,83.01
2023-03-03T17:24:45.244Z,83.02
2023-03-03T17:27:56.493Z,82.99
2023-03-03T17:30:38.406Z,83.12
2023-03-03T17:33:09.808Z,82.98
2023-03-03T17:35:50.846Z,83.11
2023-03-03T17:38:25.236Z,83.23
2023-03-03T17:41:10.187Z,83.27
2023-03-03T17:44:00.922Z,83.52
2023-03-03T17:46:48.879Z,83.95
2023-03-03T17:49:26.422Z,84.20
2023-03-03T17:52:09.403Z,84.51
2023-03-03T17:55:17.766Z,84.98
2023-03-03T17:57:58.544Z,85.68
2023-03-03T18:00:45.636Z,86.30
2023-03-03T18:03:43.507Z,86.85
2023-03-03T18:06:24.588Z,87.45
2023-03-03T18:09:20.604Z,87.82
2023-03-03T18:11:52.398Z,88.25
2023-03-03T18:14:29.957Z,88.76
2023-03-03T18:17:15.476Z,89.08
2023-03-03T18:20:08.700Z,89.53
2023-03-03T18:22:47.473Z,89.87
2023-03-03T18:25:52.783Z,90.22
2023-03-03T18:28:22.701Z,90.65
2023-03-03T18:31:00.443Z,91.06
2023-03-03T18:33:36.361Z,91.25
2023-03-03T18:36:26.942Z,91.59
2023-03-03T18:38:55.560Z,92.11
2023-03-03T18:41:28.522Z,92.43
2023-03-03T18:43:58.210Z,92.70
2023-03-03T18:46:26.659Z,92.93
2023-03-03T18:49:05.217Z,93.24
2023-03-03T18:51:39.753Z,93.66
2023-03-03T18:54:18.998Z,93.96
2023-03-03T18:56:53.620Z,94.39
2023-03-03T18:59:35.329Z,94.83
2023-03-03T19:02:13.124Z,95.16
2023-03-03T19:05:09.363Z,95.51
2023-03-03T19:07:41.269Z,95.90
2023-03-03T19:10:52.270Z,96.25
2023-03-03T19:13:33.721Z,96.72
2023-03-03T19:16:12.511Z,97.14
2023-03-03T19:18:42.113Z,97.71
2023-03-03T19:21:22.378Z,98.16
2023-03-03T19:24:01.090Z,98.13
2023-03-03T19:26:37.882Z,98.50
2023-03-03T19:29:28.124Z,98.63
2023-03-03T19:32:28.588Z,99.01
2023-03-03T19:35:16.195Z,99.38
2023-03-03T19:38:00.304Z,99.51
2023-03-03T19:40:38.323Z,99.78
2023-03-03T19:43:22.081Z,99.95
2023-03-03T19:45:53.486Z,99.95
2023-03-03T19:48:27.927Z,99.97
2023-03-03T19:51:08.138Z,99.98
2023-03-03T19:53:58.059Z,100.00
2023-03-03T19:56:43.408Z,100.00
2023-03-03T19:59:26.467Z,100.00
2023-03-03T20:02:11.069Z,100.00
2023-03-03T20:04:56.226Z,100.00
2023-03-03T20:07:33.872Z,100.00
2023-03-03T20:10:08.445Z,100.00
2023-03-03T20:12:53.430Z,100.00
2023-03-03T20:15:37.662Z,100.00
2023-03-03T20:18:40.074Z,100.00
2023-03-03T20:21:28.658Z,100.00
2023-03-03T20:24:25.477Z,100.00
2023-03-03T20:26:58.274Z,100.00
2023-03-03T20:30:04.043Z,100.00
2023-03-03T20:33:00.158Z,100.00
2023-03-03T20:35:29.403Z,100.00
2023-03-03T20:38:22.657Z,100.00
2023-03-03T20:41:12.664Z,100.00
2023-03-03T20:43:58.261Z,100.00
2023-03-03T20:47:01.580Z,100.00
2023-03-03T20:49:36.426Z,100.00
2023-03-03T20:52:13.793Z,100.00
2023-03-03T20:54:44.669Z,100.00
2023-03-03T20:57:37.567Z,100.00
2023-03-03T21:00:10.140Z,100.00
2023-03-03T21:03:00.470Z,100.00
2023-03-03T21:05:30.063Z,100.00
2023-03-03T21:08:02.964Z,100.00
2023-03-03T21:10:35.980Z,100.00
2023-03-03T21:13:29.601Z,100.00
2023-03-03T21:16:26.870Z,100.00
2023-03-03T21:19:11.916Z,100.00
2023-03-03T21:21:42.852Z,100.00
2023-03-03T21:24:15.272Z,100.00
2023-03-03T21:27:00.221Z,100.00
2023-03-03T21:29:30.950Z,100.00
2023-03-03T21:32:03.925Z,100.00
2023-03-03T21:34:36.219Z,100.00
2023-03-03T21:37:07.277Z,100.00
2023-03-03T21:39:37.482Z,100.00
2023-03-03T21:42:09.566Z,100.00
2023-03-03T21:44:40.433Z,100.00
2023-03-03T21:47:15.143Z,100.00
2023-03-03T21:50:00.003Z,100.00
2023-03-03T21:52:28.453Z,100.00
2023-03-03T21:54:56.652Z,100.00
2023-03-03T21:57:26.744Z,100.00
2023-03-03T21:59:55.997Z,100.00
2023-03-03T22:02:25.836Z,100.00
2023-03-03T22:04:54.231Z,100.00
2023-03-03T22:07:22.392Z,100.00
2023-03-03T22:09:50.846Z,100.00
2023-03-03T22:12:19.171Z,100.00
2023-03-03T22:14:49.509Z,100.00
2023-03-03T22:17:17.686Z,100.00
2023-03-03T22:19:45.804Z,100.00
2023-03-03T22:22:17.320Z,100.00
2023-03-03T22:24:46.079Z,100.00
2023-03-03T22:27:16.747Z,100.00
2023-03-03T22:29:45.370Z,100.00
2023-03-03T22:32:13.706Z,100.00
2023-03-03T22:34:42.562Z,100.00
2023-03-03T22:37:11.122Z,100.00
2023-03-03T22:39:39.417Z,100.00
2023-03-03T22:42:07.716Z,100.00
2023-03-03T22:44:35.908Z,100.00
2023-03-03T22:47:04.293Z,100.00
2023-03-03T22:49:32.928Z,100.00
2023-03-03T22:52:02.755Z,100.00
2023-03-03T22:54:31.806Z,100.00
2023-03-03T22:56:59.956Z,100.00
2023-03-03T22:59:28.514Z,100.00
2023-03-03T23:02:00.844Z,100.00
2023-03-03T23:04:29.801Z,100.00
2023-03-03T23:07:00.766Z,100.00
2023-03-03T23:09:33.462Z,100.00
2023-03-03T23:12:07.784Z,100.00
2023-03-03T23:14:37.331Z,100.00
2023-03-03T23:17:08.060Z,100.00
2023-03-03T23:19:39.043Z,100.00
2023-03-03T23:22:11.073Z,100.00
2023-03-03T23:24:44.902Z,100.00
2023-03-03T23:27:18.921Z,100.00
2023-03-03T23:29:47.674Z,100.00
2023-03-03T23:32:16.155Z,100.00
2023-03-03T23:34:44.359Z,100.00
2023-03-03T23:37:16.199Z,100.00
2023-03-03T23:39:44.643Z,100.00
2023-03-03T23:42:12.864Z,100.00
2023-03-03T23:44:41.323Z,100.00
2023-03-03T23:47:13.166Z,100.00
2023-03-03T23:49:42.880Z,100.00
2023-03-03T23:52:11.184Z,100.00
2023-03-03T23:54:39.389Z,100.00
2023-03-03T23:57:08.312Z,100.00
2023-03-03T23:59:36.573Z,100.00
